Главная страница
METAR-TAF:

METAR-TAF

Аэропорты :

Ringkøbing-Skjern, Дания

широта: 56-00N, долгота: 008-21E, высота над уровнем моря: 5 м

Текущие метеонаблюдения

Эта сводка был подготовлена 16 часа и 37 минут назад, в 13:50 UTC
Ветер 10 Узел от юго-западный
Температура 14°C
Влажность 94%
Давление 1011 hPa
Видимость: 4500 м
Рассеянная облачность на высоте 1500 фута
дымка

METAR: EKVJ 201350Z 22010KT 4500 BR BKN015 14/13 Q1011

Время: 08:27 (06:27 UTC)

Прогноз

Эта сводка был подготовлена 21 часа и 28 минут назад, в 08:59 UTC
Прогноз действительный с 20-го 09 UTC до 20-го 15 UTC
Ветер 12 Узел от юго-западный
Видимость 10 км и более
Рассеянная облачность на высоте 3000 фута
временами
С 20-го 10 UTC до 20-го 15 UTC
Видимость: 4000 м
Рассеянная облачность на высоте 1200 фута
небольшой дождь, Морось

TAF: EKVJ 200859Z 2009/2015 23012KT 9999 BKN030 TEMPO 2010/2015 4000 -RADZ BKN012

Метеонаблюдения и прогнозы для более 4000 аэропортов (сводки METAR и TAF).

Имеющиеся станции представлены на карте желтыми и красными точками.

Чтобы увидеть название станции, наведите на нее мышь.

Затем щелкните, чтобы увидеть метеонаблюдения и метеопрогнозы.

Управление картой: чтобы увеличить масштаб, щелкните зеленые кнопки с черным крестиком; чтобы уменьшить масштаб, щелкните зеленую кнопку с тире; для просмотра соседних карт щелкайте зеленые стрелки.


METAR-TAF: